Time;durP1;ratioP1;P1;durP2;ratioP2;P2;SDS_P1;SDS_P2;PMS_P1;PMS_P2;Temp;Humidity;BMP_temperature;BMP_pressure;BME280_temperature;BME280_humidity;BME280_pressure;Samples;Min_cycle;Max_cycle;Signal;HPM_P1;HPM_P2
2023/05/09 00:00:19;;;;;;;0.65;0.65;;;;;;;;;;4982826;28;20026;-80
2023/05/09 00:02:45;;;;;;;1.63;0.93;;;;;;;;;;4980911;28;20507;-80
2023/05/09 00:05:11;;;;;;;1.45;1.05;;;;;;;;;;4985780;28;20137;-79
2023/05/09 00:07:37;;;;;;;1.30;1.17;;;;;;;;;;4986601;28;20065;-80
2023/05/09 00:10:07;;;;;;;0.70;0.70;;;;;;;;;;4966966;28;20023;-79
2023/05/09 00:12:33;;;;;;;1.80;1.02;;;;;;;;;;4989866;28;20050;-79
2023/05/09 00:14:59;;;;;;;1.75;1.10;;;;;;;;;;4983892;28;20035;-79
2023/05/09 00:17:25;;;;;;;1.60;1.20;;;;;;;;;;4971103;28;20026;-81
2023/05/09 00:19:52;;;;;;;1.35;0.98;;;;;;;;;;4988459;28;20043;-80
2023/05/09 00:22:20;;;;;;;1.13;1.00;;;;;;;;;;4987491;28;20544;-80
2023/05/09 00:24:46;;;;;;;1.02;0.90;;;;;;;;;;4984404;28;20121;-80
2023/05/09 00:27:12;;;;;;;2.55;1.20;;;;;;;;;;4986459;28;20188;-80
2023/05/09 00:29:38;;;;;;;1.50;0.80;;;;;;;;;;4986447;28;20323;-79
2023/05/09 00:32:05;;;;;;;1.00;0.85;;;;;;;;;;4983529;28;20027;-80
2023/05/09 00:34:31;;;;;;;1.00;0.90;;;;;;;;;;4974707;28;20038;-80
2023/05/09 00:36:57;;;;;;;1.55;0.85;;;;;;;;;;4986491;28;20034;-80
2023/05/09 00:39:23;;;;;;;1.75;1.08;;;;;;;;;;4988562;28;20098;-80
2023/05/09 00:41:48;;;;;;;1.55;1.00;;;;;;;;;;4986096;28;20089;-80
2023/05/09 00:44:14;;;;;;;1.08;0.98;;;;;;;;;;4988347;28;20085;-80
2023/05/09 00:46:41;;;;;;;0.60;0.60;;;;;;;;;;4988760;28;20685;-80
2023/05/09 00:49:07;;;;;;;1.88;1.02;;;;;;;;;;4990542;28;20023;-79
2023/05/09 00:51:33;;;;;;;1.33;0.93;;;;;;;;;;4970784;28;20065;-79
2023/05/09 00:54:01;;;;;;;1.92;1.33;;;;;;;;;;4986569;28;20018;-80
2023/05/09 00:56:27;;;;;;;0.98;0.80;;;;;;;;;;4972991;28;20062;-80
2023/05/09 00:58:54;;;;;;;1.83;1.20;;;;;;;;;;4988486;28;20540;-79
2023/05/09 01:01:21;;;;;;;1.30;1.00;;;;;;;;;;4986691;28;20049;-80
2023/05/09 01:03:47;;;;;;;1.92;1.10;;;;;;;;;;4986110;28;20030;-81
2023/05/09 01:06:20;;;;;;;1.38;0.98;;;;;;;;;;4976624;28;20041;-80
2023/05/09 01:08:51;;;;;;;1.40;1.27;;;;;;;;;;4984695;28;20029;-80
2023/05/09 01:11:38;;;;;;;1.48;1.10;;;;;;;;;;4971948;28;20076;-80
2023/05/09 01:14:12;;;;;;;1.05;0.90;;;;;;;;;;4978098;28;20038;-79
2023/05/09 01:16:45;;;;;;;0.73;0.73;;;;;;;;;;4987921;28;20062;-79
2023/05/09 01:19:27;;;;;;;0.95;0.85;;;;;;;;;;4971360;28;20096;-80
2023/05/09 01:21:54;;;;;;;1.45;1.00;;;;;;;;;;4987724;28;20029;-80
2023/05/09 01:24:26;;;;;;;0.93;0.73;;;;;;;;;;4988041;28;20429;-80
2023/05/09 01:27:13;;;;;;;1.90;0.90;;;;;;;;;;4988113;28;20053;-80
2023/05/09 01:29:58;;;;;;;1.50;0.93;;;;;;;;;;4941037;28;20058;-80
2023/05/09 01:32:26;;;;;;;1.33;0.90;;;;;;;;;;4979246;28;20030;-79
2023/05/09 01:34:54;;;;;;;1.88;0.85;;;;;;;;;;4977883;28;20022;-79
2023/05/09 01:37:23;;;;;;;0.95;0.80;;;;;;;;;;4983493;28;20035;-79
2023/05/09 01:39:52;;;;;;;2.05;1.02;;;;;;;;;;4979043;28;20038;-80
2023/05/09 01:42:20;;;;;;;1.35;0.88;;;;;;;;;;4984446;28;20027;-80
2023/05/09 01:44:46;;;;;;;1.35;0.98;;;;;;;;;;4989575;28;20070;-80
2023/05/09 01:47:16;;;;;;;0.95;0.85;;;;;;;;;;4984913;28;20062;-79
2023/05/09 01:49:42;;;;;;;2.33;0.95;;;;;;;;;;4985440;28;20045;-79
2023/05/09 01:52:11;;;;;;;1.75;1.00;;;;;;;;;;4972688;28;20058;-80
2023/05/09 01:54:38;;;;;;;2.20;1.08;;;;;;;;;;4980313;28;20050;-80
2023/05/09 01:57:05;;;;;;;1.05;0.77;;;;;;;;;;4981448;28;20046;-79
2023/05/09 01:59:33;;;;;;;1.85;1.10;;;;;;;;;;4989001;28;20031;-79
2023/05/09 02:01:59;;;;;;;1.90;1.02;;;;;;;;;;4983587;28;20049;-80
2023/05/09 02:04:26;;;;;;;1.98;0.73;;;;;;;;;;4985669;28;20049;-80
2023/05/09 02:06:53;;;;;;;1.27;0.98;;;;;;;;;;4987838;28;20042;-79
2023/05/09 02:09:19;;;;;;;1.23;1.00;;;;;;;;;;4990463;28;20116;-79
2023/05/09 02:11:45;;;;;;;0.98;0.98;;;;;;;;;;4988148;28;20088;-79
2023/05/09 02:14:12;;;;;;;1.40;0.82;;;;;;;;;;4964794;28;20108;-79
2023/05/09 02:16:38;;;;;;;2.03;1.10;;;;;;;;;;4979718;28;20035;-80
2023/05/09 02:19:04;;;;;;;1.58;1.15;;;;;;;;;;4985120;28;20033;-79
2023/05/09 02:21:30;;;;;;;1.52;1.00;;;;;;;;;;4983954;28;20124;-79
2023/05/09 02:23:57;;;;;;;0.90;0.80;;;;;;;;;;4986454;28;20022;-79
2023/05/09 02:26:24;;;;;;;1.50;1.00;;;;;;;;;;4980715;28;20045;-79
2023/05/09 02:28:51;;;;;;;0.80;0.80;;;;;;;;;;4978655;28;20564;-80
2023/05/09 02:31:18;;;;;;;2.03;0.93;;;;;;;;;;4965549;28;20019;-80
2023/05/09 02:33:45;;;;;;;0.82;0.80;;;;;;;;;;4988323;28;20032;-80
2023/05/09 02:36:11;;;;;;;2.03;0.88;;;;;;;;;;4983205;28;20092;-80
2023/05/09 02:38:37;;;;;;;1.58;1.02;;;;;;;;;;4974834;28;20080;-79
2023/05/09 02:41:04;;;;;;;1.42;1.08;;;;;;;;;;4980428;28;20570;-79
2023/05/09 02:43:29;;;;;;;2.55;0.93;;;;;;;;;;4982916;28;20022;-79
2023/05/09 02:45:55;;;;;;;1.10;1.00;;;;;;;;;;4976481;28;20606;-79
2023/05/09 02:48:22;;;;;;;4.22;1.10;;;;;;;;;;4984533;28;20492;-79
2023/05/09 02:50:48;;;;;;;1.15;0.82;;;;;;;;;;4979916;28;20023;-79
2023/05/09 02:53:14;;;;;;;1.08;0.98;;;;;;;;;;4984653;28;20058;-79
2023/05/09 02:55:39;;;;;;;2.20;0.93;;;;;;;;;;4982352;28;20039;-80
2023/05/09 02:58:05;;;;;;;1.20;0.70;;;;;;;;;;4988008;28;20446;-80
2023/05/09 03:00:34;;;;;;;1.92;0.90;;;;;;;;;;4985548;28;20026;-79
2023/05/09 03:03:00;;;;;;;0.95;0.90;;;;;;;;;;4983752;28;20040;-79
2023/05/09 03:05:26;;;;;;;1.25;0.90;;;;;;;;;;4981945;28;20421;-79
2023/05/09 03:07:51;;;;;;;3.22;0.98;;;;;;;;;;4986976;28;20397;-79
2023/05/09 03:10:18;;;;;;;1.40;0.82;;;;;;;;;;4987107;28;20073;-79
2023/05/09 03:12:44;;;;;;;2.60;1.00;;;;;;;;;;4985491;28;20110;-80
2023/05/09 03:15:10;;;;;;;1.60;0.90;;;;;;;;;;4986082;28;20038;-79
2023/05/09 03:17:36;;;;;;;0.80;0.70;;;;;;;;;;4984584;28;20022;-79
2023/05/09 03:20:04;;;;;;;2.25;0.90;;;;;;;;;;4986507;28;20030;-80
2023/05/09 03:22:30;;;;;;;0.98;0.82;;;;;;;;;;4986199;28;20088;-81
2023/05/09 03:24:56;;;;;;;1.00;0.80;;;;;;;;;;4969719;28;20034;-80
2023/05/09 03:27:22;;;;;;;1.17;1.08;;;;;;;;;;4973124;28;20039;-81
2023/05/09 03:29:48;;;;;;;0.70;0.70;;;;;;;;;;4986205;28;20038;-80
2023/05/09 03:32:14;;;;;;;2.10;0.98;;;;;;;;;;4984530;28;20026;-80
2023/05/09 03:34:40;;;;;;;1.08;0.80;;;;;;;;;;4985435;28;20093;-80
2023/05/09 03:37:06;;;;;;;1.67;1.00;;;;;;;;;;4987111;28;20038;-80
2023/05/09 03:39:32;;;;;;;0.95;0.70;;;;;;;;;;4988870;28;20038;-79
2023/05/09 03:41:58;;;;;;;1.05;0.90;;;;;;;;;;4987757;28;20030;-80
2023/05/09 03:44:25;;;;;;;1.67;0.60;;;;;;;;;;4978594;28;20088;-80
2023/05/09 03:46:51;;;;;;;2.13;1.10;;;;;;;;;;4987378;28;20041;-79
2023/05/09 03:49:17;;;;;;;1.27;0.73;;;;;;;;;;4982439;28;20030;-80
2023/05/09 03:51:43;;;;;;;1.33;0.90;;;;;;;;;;4987035;28;20057;-80
2023/05/09 03:54:09;;;;;;;0.50;0.50;;;;;;;;;;4986516;28;20034;-80
2023/05/09 03:56:35;;;;;;;2.05;0.88;;;;;;;;;;4988780;28;20027;-80
2023/05/09 03:59:01;;;;;;;0.70;0.65;;;;;;;;;;4990078;28;20033;-79
2023/05/09 04:01:27;;;;;;;0.70;0.70;;;;;;;;;;4988530;28;20409;-80
2023/05/09 04:03:53;;;;;;;0.93;0.70;;;;;;;;;;4981902;28;20109;-80
2023/05/09 04:06:19;;;;;;;1.42;1.08;;;;;;;;;;4988781;28;20061;-80
2023/05/09 04:08:47;;;;;;;1.38;0.95;;;;;;;;;;4985209;28;20128;-80
2023/05/09 04:11:13;;;;;;;1.80;1.00;;;;;;;;;;4989926;28;20034;-81
2023/05/09 04:13:39;;;;;;;0.75;0.75;;;;;;;;;;4988009;28;20367;-81
2023/05/09 04:16:05;;;;;;;2.47;0.77;;;;;;;;;;4987425;28;20030;-80
2023/05/09 04:18:31;;;;;;;1.17;0.95;;;;;;;;;;4989602;28;20026;-81
2023/05/09 04:20:57;;;;;;;1.25;0.82;;;;;;;;;;4986287;28;20026;-81
2023/05/09 04:23:23;;;;;;;2.28;0.82;;;;;;;;;;4979011;28;20183;-81
2023/05/09 04:25:53;;;;;;;1.02;0.80;;;;;;;;;;4977447;28;20038;-81
2023/05/09 04:28:19;;;;;;;1.55;0.80;;;;;;;;;;4986805;28;20030;-81
2023/05/09 04:30:45;;;;;;;2.78;1.15;;;;;;;;;;4970539;28;20452;-78
2023/05/09 04:33:11;;;;;;;1.02;0.80;;;;;;;;;;4989588;28;20058;-82
2023/05/09 04:35:38;;;;;;;0.80;0.80;;;;;;;;;;4974474;28;20038;-83
2023/05/09 04:38:04;;;;;;;7.68;1.55;;;;;;;;;;4979267;28;20031;-82
2023/05/09 04:40:30;;;;;;;1.23;0.95;;;;;;;;;;4985008;28;20499;-85
2023/05/09 04:42:56;;;;;;;1.15;0.88;;;;;;;;;;4988905;28;20584;-84
2023/05/09 04:45:22;;;;;;;0.77;0.75;;;;;;;;;;4989401;28;20030;-84
2023/05/09 04:47:48;;;;;;;1.25;1.02;;;;;;;;;;4973369;28;20213;-85
2023/05/09 04:50:15;;;;;;;0.70;0.60;;;;;;;;;;4991149;28;20023;-86
2023/05/09 04:52:41;;;;;;;0.88;0.70;;;;;;;;;;4989042;28;20026;-81
2023/05/09 04:55:10;;;;;;;0.77;0.77;;;;;;;;;;4982137;28;20037;-81
2023/05/09 04:57:36;;;;;;;1.65;1.20;;;;;;;;;;4981632;28;20033;-80
2023/05/09 05:00:02;;;;;;;2.47;0.80;;;;;;;;;;4974664;28;20390;-81
2023/05/09 05:02:28;;;;;;;1.95;1.00;;;;;;;;;;4975094;28;20027;-79
2023/05/09 05:04:54;;;;;;;1.02;0.90;;;;;;;;;;4976747;28;20045;-78
2023/05/09 05:07:20;;;;;;;6.72;0.75;;;;;;;;;;4984992;28;20042;-78
2023/05/09 05:09:46;;;;;;;1.75;1.10;;;;;;;;;;4984244;28;20031;-81
2023/05/09 05:12:12;;;;;;;1.02;0.77;;;;;;;;;;4988538;28;20477;-82
2023/05/09 05:14:38;;;;;;;1.67;0.80;;;;;;;;;;4990649;28;20036;-82
2023/05/09 05:17:04;;;;;;;0.82;0.82;;;;;;;;;;4989358;28;20046;-81
2023/05/09 05:19:30;;;;;;;1.77;0.77;;;;;;;;;;4981070;28;20121;-77
2023/05/09 05:21:56;;;;;;;1.77;0.90;;;;;;;;;;4988414;28;20034;-77
2023/05/09 05:24:22;;;;;;;0.98;0.70;;;;;;;;;;4973476;28;20034;-78
2023/05/09 05:27:14;;;;;;;1.77;0.90;;;;;;;;;;4983358;28;20030;-77
2023/05/09 05:29:40;;;;;;;0.80;0.80;;;;;;;;;;4977936;28;20034;-77
2023/05/09 05:32:06;;;;;;;1.88;0.70;;;;;;;;;;4970325;28;20038;-77
2023/05/09 05:34:32;;;;;;;1.35;1.20;;;;;;;;;;4953463;28;20034;-77
2023/05/09 05:36:58;;;;;;;1.33;0.68;;;;;;;;;;4975950;28;20037;-77
2023/05/09 05:39:24;;;;;;;1.92;1.02;;;;;;;;;;4970048;28;20057;-77
2023/05/09 05:41:50;;;;;;;2.03;1.00;;;;;;;;;;4970823;28;20486;-77
2023/05/09 05:44:16;;;;;;;3.25;1.10;;;;;;;;;;4970226;28;20054;-77
2023/05/09 05:46:42;;;;;;;1.05;0.70;;;;;;;;;;4970090;28;20045;-77
2023/05/09 05:49:08;;;;;;;1.23;1.10;;;;;;;;;;4986707;28;20026;-77
2023/05/09 05:51:34;;;;;;;2.42;1.67;;;;;;;;;;4989039;28;20074;-77
2023/05/09 05:54:00;;;;;;;1.38;1.00;;;;;;;;;;4970189;28;20482;-78
2023/05/09 05:56:26;;;;;;;0.88;0.77;;;;;;;;;;4976323;28;20029;-77
2023/05/09 05:58:52;;;;;;;1.35;1.05;;;;;;;;;;4988887;28;20033;-76
2023/05/09 06:01:18;;;;;;;1.05;0.90;;;;;;;;;;4980131;28;20042;-77
2023/05/09 06:03:44;;;;;;;0.70;0.70;;;;;;;;;;4969861;28;20530;-76
2023/05/09 06:06:10;;;;;;;0.98;0.85;;;;;;;;;;4986083;28;20046;-78
2023/05/09 06:08:37;;;;;;;0.70;0.68;;;;;;;;;;4970029;28;20035;-78
2023/05/09 06:11:04;;;;;;;1.75;0.90;;;;;;;;;;4984503;28;20022;-75
2023/05/09 06:13:30;;;;;;;1.58;0.75;;;;;;;;;;4970239;28;20050;-74
2023/05/09 06:15:56;;;;;;;1.35;1.00;;;;;;;;;;4972748;28;20030;-74
2023/05/09 06:18:22;;;;;;;2.15;0.98;;;;;;;;;;4989170;28;20117;-75
2023/05/09 06:20:51;;;;;;;2.25;0.85;;;;;;;;;;4987251;28;20101;-75
2023/05/09 06:23:21;;;;;;;0.75;0.73;;;;;;;;;;4983125;28;20030;-74
2023/05/09 06:25:47;;;;;;;1.85;0.80;;;;;;;;;;4972174;28;20085;-75
2023/05/09 06:28:12;;;;;;;1.15;0.77;;;;;;;;;;4982722;28;20117;-77
2023/05/09 06:30:38;;;;;;;0.73;0.60;;;;;;;;;;4974018;28;20026;-76
2023/05/09 06:33:04;;;;;;;0.73;0.73;;;;;;;;;;4959855;28;20030;-77
2023/05/09 06:35:30;;;;;;;2.22;1.60;;;;;;;;;;4985797;28;20042;-79
2023/05/09 06:37:56;;;;;;;0.70;0.70;;;;;;;;;;4987149;28;20025;-82
2023/05/09 06:40:22;;;;;;;3.13;1.05;;;;;;;;;;4988963;28;20674;-76
2023/05/09 06:42:48;;;;;;;0.85;0.85;;;;;;;;;;4987465;28;20037;-78
2023/05/09 06:45:14;;;;;;;0.80;0.80;;;;;;;;;;4987498;28;20393;-76
2023/05/09 06:47:40;;;;;;;2.25;1.27;;;;;;;;;;4979609;28;20166;-78
2023/05/09 06:50:07;;;;;;;9.45;1.75;;;;;;;;;;4984325;28;20038;-77
2023/05/09 06:52:33;;;;;;;1.10;0.98;;;;;;;;;;4968976;28;20031;-78
2023/05/09 06:54:59;;;;;;;0.98;0.80;;;;;;;;;;4981784;28;20094;-79
2023/05/09 06:57:25;;;;;;;2.97;1.10;;;;;;;;;;4987962;28;20035;-80
2023/05/09 06:59:50;;;;;;;1.55;0.90;;;;;;;;;;4978843;28;20026;-81
2023/05/09 07:02:16;;;;;;;1.13;0.82;;;;;;;;;;4978282;28;20563;-76
2023/05/09 07:04:43;;;;;;;1.42;1.10;;;;;;;;;;4969486;28;20375;-79
2023/05/09 07:07:09;;;;;;;0.60;0.60;;;;;;;;;;4988697;28;20034;-82
2023/05/09 07:09:35;;;;;;;2.83;1.33;;;;;;;;;;4991996;28;20034;-80
2023/05/09 07:12:01;;;;;;;1.35;1.05;;;;;;;;;;4978695;28;20545;-80
2023/05/09 07:14:27;;;;;;;1.30;1.05;;;;;;;;;;4974171;28;20027;-81
2023/05/09 07:16:53;;;;;;;0.70;0.70;;;;;;;;;;4987225;28;20057;-76
2023/05/09 07:19:19;;;;;;;1.73;0.82;;;;;;;;;;4956462;28;20053;-79
2023/05/09 07:21:45;;;;;;;2.05;1.27;;;;;;;;;;4972281;28;20100;-78
2023/05/09 07:24:11;;;;;;;0.60;0.60;;;;;;;;;;4972525;28;20402;-79
2023/05/09 07:26:37;;;;;;;2.38;1.00;;;;;;;;;;4969115;28;20039;-78
2023/05/09 07:29:03;;;;;;;0.80;0.80;;;;;;;;;;4972071;28;20019;-78
2023/05/09 07:31:29;;;;;;;1.17;1.02;;;;;;;;;;4982772;28;20030;-78
2023/05/09 07:33:55;;;;;;;1.25;1.00;;;;;;;;;;4984791;28;20096;-78
2023/05/09 07:36:21;;;;;;;2.35;1.02;;;;;;;;;;4981225;28;20045;-78
2023/05/09 07:38:51;;;;;;;0.93;0.93;;;;;;;;;;4988161;28;20030;-78
2023/05/09 07:41:17;;;;;;;2.33;1.27;;;;;;;;;;4978318;28;20373;-78
2023/05/09 07:43:46;;;;;;;1.10;0.88;;;;;;;;;;4976930;28;20047;-78
2023/05/09 07:46:15;;;;;;;2.13;1.17;;;;;;;;;;4979468;28;20026;-77
2023/05/09 07:48:41;;;;;;;1.83;1.20;;;;;;;;;;4974213;28;20089;-77
2023/05/09 07:51:07;;;;;;;1.10;0.80;;;;;;;;;;4969399;28;20115;-78
2023/05/09 07:53:33;;;;;;;1.40;1.20;;;;;;;;;;4971974;28;20014;-79
2023/05/09 07:56:02;;;;;;;1.10;0.85;;;;;;;;;;4988941;28;20030;-78
2023/05/09 07:58:28;;;;;;;1.00;0.70;;;;;;;;;;4987491;28;20030;-78
2023/05/09 08:00:55;;;;;;;1.98;1.08;;;;;;;;;;4976282;28;20023;-78
2023/05/09 08:03:21;;;;;;;1.05;0.90;;;;;;;;;;4981107;28;20069;-79
2023/05/09 08:05:47;;;;;;;2.17;0.90;;;;;;;;;;4980100;28;20085;-78
2023/05/09 08:08:13;;;;;;;4.57;1.05;;;;;;;;;;4969808;28;20117;-79
2023/05/09 08:10:39;;;;;;;1.58;1.10;;;;;;;;;;4989023;28;20033;-79
2023/05/09 08:13:05;;;;;;;1.10;0.80;;;;;;;;;;4973209;28;20030;-78
2023/05/09 08:15:31;;;;;;;1.30;1.20;;;;;;;;;;4968134;28;20034;-78
2023/05/09 08:17:57;;;;;;;1.13;0.80;;;;;;;;;;4984236;28;20022;-78
2023/05/09 08:20:23;;;;;;;0.88;0.75;;;;;;;;;;4987390;28;20416;-78
2023/05/09 08:22:49;;;;;;;4.38;1.52;;;;;;;;;;4983229;28;20030;-78
2023/05/09 08:25:17;;;;;;;1.85;1.10;;;;;;;;;;4983643;28;20251;-79
2023/05/09 08:27:43;;;;;;;1.63;1.00;;;;;;;;;;4982025;28;20026;-80
2023/05/09 08:30:09;;;;;;;1.55;0.85;;;;;;;;;;4987542;28;20026;-80
2023/05/09 08:32:36;;;;;;;1.13;1.02;;;;;;;;;;4979276;28;20033;-81
2023/05/09 08:35:08;;;;;;;1.55;0.85;;;;;;;;;;4989173;28;20486;-74
2023/05/09 08:37:37;;;;;;;2.65;1.42;;;;;;;;;;4974806;28;20500;-75
2023/05/09 08:40:06;;;;;;;1.15;1.00;;;;;;;;;;4978890;28;20022;-81
2023/05/09 08:42:32;;;;;;;0.82;0.80;;;;;;;;;;4986940;28;20053;-81
2023/05/09 08:45:00;;;;;;;1.70;1.50;;;;;;;;;;4977358;28;20105;-81
2023/05/09 08:47:26;;;;;;;0.90;0.80;;;;;;;;;;4977750;28;20046;-80
2023/05/09 08:49:53;;;;;;;2.17;1.10;;;;;;;;;;4989456;28;20030;-81
2023/05/09 08:52:19;;;;;;;3.40;0.95;;;;;;;;;;4988401;28;20023;-82
2023/05/09 08:54:45;;;;;;;1.50;0.93;;;;;;;;;;4989395;28;20022;-81
2023/05/09 08:57:11;;;;;;;0.98;0.90;;;;;;;;;;4989351;28;20065;-81
2023/05/09 08:59:39;;;;;;;3.10;1.10;;;;;;;;;;4977544;28;20039;-81
2023/05/09 09:02:06;;;;;;;1.45;1.05;;;;;;;;;;4971913;28;20027;-81
2023/05/09 09:04:32;;;;;;;1.23;0.88;;;;;;;;;;4972263;28;20581;-82
2023/05/09 09:06:59;;;;;;;1.55;1.02;;;;;;;;;;4971187;28;20034;-81
2023/05/09 09:09:25;;;;;;;1.20;1.10;;;;;;;;;;4987434;28;20046;-82
2023/05/09 09:11:52;;;;;;;1.10;1.00;;;;;;;;;;4990200;28;20034;-81
2023/05/09 09:14:24;;;;;;;0.70;0.70;;;;;;;;;;4989377;28;20575;-81
2023/05/09 09:16:52;;;;;;;1.40;1.10;;;;;;;;;;4989490;28;20057;-82
2023/05/09 09:19:18;;;;;;;3.70;1.00;;;;;;;;;;4986140;28;20026;-82
2023/05/09 09:21:46;;;;;;;3.38;1.27;;;;;;;;;;4984439;28;20423;-80
2023/05/09 09:24:12;;;;;;;1.98;1.13;;;;;;;;;;4984375;28;20152;-82
2023/05/09 09:26:48;;;;;;;1.13;0.95;;;;;;;;;;4979574;28;20485;-81
2023/05/09 09:29:15;;;;;;;1.15;1.00;;;;;;;;;;4985844;28;20636;-82
2023/05/09 09:31:43;;;;;;;1.05;0.93;;;;;;;;;;4983967;28;20019;-82
2023/05/09 09:34:09;;;;;;;0.90;0.80;;;;;;;;;;4978516;28;20067;-81
2023/05/09 09:36:35;;;;;;;3.45;1.20;;;;;;;;;;4979005;28;20039;-81
2023/05/09 09:39:05;;;;;;;1.35;1.10;;;;;;;;;;4976825;28;20113;-81
2023/05/09 09:41:33;;;;;;;1.13;0.98;;;;;;;;;;4978536;28;20026;-81
2023/05/09 09:43:59;;;;;;;1.50;1.17;;;;;;;;;;4985100;28;20041;-81
2023/05/09 09:46:25;;;;;;;0.70;0.70;;;;;;;;;;4976019;28;20475;-81
2023/05/09 09:48:55;;;;;;;1.33;0.88;;;;;;;;;;4972066;28;20153;-81
2023/05/09 09:51:21;;;;;;;5.00;2.08;;;;;;;;;;4984252;28;20026;-82
2023/05/09 09:53:47;;;;;;;2.80;1.05;;;;;;;;;;4985637;28;20026;-82
2023/05/09 09:56:13;;;;;;;1.88;1.00;;;;;;;;;;4989711;28;20022;-81
2023/05/09 09:58:39;;;;;;;1.33;1.10;;;;;;;;;;4985160;28;20049;-82
2023/05/09 10:01:12;;;;;;;1.92;1.27;;;;;;;;;;4987724;28;20031;-81
2023/05/09 10:03:39;;;;;;;1.38;1.10;;;;;;;;;;4970808;28;20047;-82
2023/05/09 10:06:09;;;;;;;1.15;0.98;;;;;;;;;;4953137;28;20062;-83
2023/05/09 10:08:35;;;;;;;1.08;0.98;;;;;;;;;;4970058;28;20026;-81
2023/05/09 10:11:01;;;;;;;0.95;0.90;;;;;;;;;;4986157;28;20026;-81
2023/05/09 10:13:28;;;;;;;1.20;0.80;;;;;;;;;;4978978;28;20485;-82
2023/05/09 10:15:54;;;;;;;1.85;1.13;;;;;;;;;;4980423;28;20405;-81
2023/05/09 10:18:27;;;;;;;1.45;0.98;;;;;;;;;;4981147;28;20041;-82
2023/05/09 10:20:53;;;;;;;1.17;1.08;;;;;;;;;;4986633;28;20034;-82
2023/05/09 10:23:20;;;;;;;1.17;0.90;;;;;;;;;;4979718;28;20509;-82
2023/05/09 10:25:54;;;;;;;1.25;0.95;;;;;;;;;;4980681;28;20121;-81
2023/05/09 10:28:24;;;;;;;0.70;0.70;;;;;;;;;;4979996;28;20034;-82
2023/05/09 10:30:54;;;;;;;0.82;0.80;;;;;;;;;;4979048;28;20462;-82
2023/05/09 10:33:23;;;;;;;4.13;0.98;;;;;;;;;;4984457;28;20030;-81
2023/05/09 10:35:50;;;;;;;1.92;1.00;;;;;;;;;;4983394;28;20030;-81
2023/05/09 10:38:16;;;;;;;2.00;1.17;;;;;;;;;;4978467;28;20077;-82
2023/05/09 10:40:43;;;;;;;1.27;0.93;;;;;;;;;;4978752;28;20151;-82
2023/05/09 10:43:09;;;;;;;2.17;1.20;;;;;;;;;;4977539;28;20030;-81
2023/05/09 10:45:44;;;;;;;1.20;0.98;;;;;;;;;;4980997;28;20359;-82
2023/05/09 10:48:11;;;;;;;1.08;0.90;;;;;;;;;;4979357;28;20080;-81
2023/05/09 10:50:41;;;;;;;0.82;0.73;;;;;;;;;;4988906;28;20030;-82
2023/05/09 10:53:10;;;;;;;0.82;0.82;;;;;;;;;;4981372;28;20322;-82
2023/05/09 10:55:54;;;;;;;1.08;0.98;;;;;;;;;;4981667;28;20077;-82
2023/05/09 10:58:23;;;;;;;1.02;0.88;;;;;;;;;;4988914;28;20026;-82
2023/05/09 11:00:49;;;;;;;2.70;1.30;;;;;;;;;;4994081;28;20045;-83
2023/05/09 11:03:18;;;;;;;1.67;1.02;;;;;;;;;;4991501;28;20022;-82
2023/05/09 11:05:44;;;;;;;1.35;1.00;;;;;;;;;;4986197;28;20055;-83
2023/05/09 11:08:21;;;;;;;1.00;1.00;;;;;;;;;;4979313;28;20089;-83
2023/05/09 11:10:47;;;;;;;0.85;0.80;;;;;;;;;;4971975;28;20482;-81
2023/05/09 11:13:17;;;;;;;3.33;1.13;;;;;;;;;;4989658;28;20026;-81
2023/05/09 11:16:10;;;;;;;1.48;1.23;;;;;;;;;;4970854;28;20061;-80
2023/05/09 11:18:48;;;;;;;1.30;1.00;;;;;;;;;;4982922;28;20039;-79
2023/05/09 11:21:14;;;;;;;1.00;0.90;;;;;;;;;;4990201;28;20034;-80
2023/05/09 11:23:41;;;;;;;0.90;0.90;;;;;;;;;;4983316;28;20433;-80
2023/05/09 11:26:07;;;;;;;1.10;1.00;;;;;;;;;;4985449;28;20026;-81
2023/05/09 11:28:37;;;;;;;1.45;1.05;;;;;;;;;;4989010;28;20129;-81
2023/05/09 11:31:13;;;;;;;2.33;1.10;;;;;;;;;;4989652;28;20064;-81
2023/05/09 11:33:39;;;;;;;1.30;1.00;;;;;;;;;;4985348;28;20053;-80
2023/05/09 11:36:16;;;;;;;1.88;1.10;;;;;;;;;;4970292;28;20061;-81
2023/05/09 11:38:42;;;;;;;1.20;1.00;;;;;;;;;;4983592;28;20080;-81
2023/05/09 11:41:08;;;;;;;1.50;1.23;;;;;;;;;;4985105;28;20089;-81
2023/05/09 11:43:38;;;;;;;1.60;1.10;;;;;;;;;;4996042;28;20109;-81
2023/05/09 11:46:04;;;;;;;1.35;1.10;;;;;;;;;;4987775;28;20222;-82
2023/05/09 11:48:30;;;;;;;1.00;1.00;;;;;;;;;;4985493;28;20053;-82
2023/05/09 11:50:56;;;;;;;2.05;1.42;;;;;;;;;;4988033;28;20037;-81
2023/05/09 11:53:23;;;;;;;2.85;1.35;;;;;;;;;;4991391;28;20464;-81
2023/05/09 11:55:49;;;;;;;2.15;1.38;;;;;;;;;;4988571;28;20057;-81
2023/05/09 11:58:16;;;;;;;2.40;1.42;;;;;;;;;;4995531;28;20116;-81
2023/05/09 12:00:45;;;;;;;1.20;1.05;;;;;;;;;;4986669;28;20042;-81
2023/05/09 12:03:12;;;;;;;1.58;1.30;;;;;;;;;;4977211;28;20433;-82
2023/05/09 12:05:38;;;;;;;1.85;1.15;;;;;;;;;;4988626;28;20783;-82
2023/05/09 12:08:05;;;;;;;1.13;1.02;;;;;;;;;;4990642;28;20041;-82
2023/05/09 12:10:31;;;;;;;2.22;1.33;;;;;;;;;;4984422;28;20109;-81
2023/05/09 12:12:57;;;;;;;1.85;1.20;;;;;;;;;;4986241;28;20664;-83
2023/05/09 12:15:23;;;;;;;1.10;1.00;;;;;;;;;;4987913;28;20507;-82
2023/05/09 12:18:05;;;;;;;1.20;1.10;;;;;;;;;;4989753;28;20041;-83
2023/05/09 12:20:41;;;;;;;1.40;1.30;;;;;;;;;;4991601;28;20096;-83
2023/05/09 12:23:08;;;;;;;1.58;1.00;;;;;;;;;;4984301;28;20034;-82
2023/05/09 12:25:34;;;;;;;1.85;1.10;;;;;;;;;;4980415;28;20034;-83
2023/05/09 12:28:00;;;;;;;1.45;1.10;;;;;;;;;;4985046;28;20113;-82
2023/05/09 12:30:26;;;;;;;1.02;0.82;;;;;;;;;;4982190;28;20042;-83
2023/05/09 12:32:52;;;;;;;1.02;1.02;;;;;;;;;;4991337;28;20033;-80
2023/05/09 12:35:22;;;;;;;1.27;1.00;;;;;;;;;;4982337;28;20057;-82
2023/05/09 12:37:56;;;;;;;1.15;1.05;;;;;;;;;;4989604;28;20052;-81
2023/05/09 12:40:22;;;;;;;1.05;0.90;;;;;;;;;;4989218;28;20035;-82
2023/05/09 12:42:48;;;;;;;1.73;1.20;;;;;;;;;;4989345;28;20113;-83
2023/05/09 12:45:14;;;;;;;1.98;1.10;;;;;;;;;;4988636;28;20125;-82
2023/05/09 12:47:40;;;;;;;1.33;1.10;;;;;;;;;;4987401;28;20034;-82
2023/05/09 12:50:11;;;;;;;0.90;0.90;;;;;;;;;;4988863;28;20031;-82
2023/05/09 12:52:38;;;;;;;1.33;0.82;;;;;;;;;;4979066;28;20027;-81
2023/05/09 12:55:08;;;;;;;1.88;1.23;;;;;;;;;;4968308;28;20061;-82
2023/05/09 12:57:34;;;;;;;1.77;1.05;;;;;;;;;;4986429;28;20030;-83
2023/05/09 13:00:10;;;;;;;1.50;1.20;;;;;;;;;;4976073;28;20042;-81
2023/05/09 13:02:37;;;;;;;1.67;1.25;;;;;;;;;;4974937;28;20098;-82
2023/05/09 13:05:10;;;;;;;3.08;1.27;;;;;;;;;;4996113;28;20089;-81
2023/05/09 13:07:43;;;;;;;0.82;0.82;;;;;;;;;;4986881;28;20058;-81
2023/05/09 13:10:13;;;;;;;1.77;1.10;;;;;;;;;;4989253;28;20023;-81
2023/05/09 13:12:43;;;;;;;0.70;0.70;;;;;;;;;;4984236;28;20025;-82
2023/05/09 13:15:09;;;;;;;0.90;0.90;;;;;;;;;;4980653;28;20054;-82
2023/05/09 13:17:35;;;;;;;0.95;0.93;;;;;;;;;;4985809;28;20027;-82
2023/05/09 13:20:05;;;;;;;1.20;0.90;;;;;;;;;;4973688;28;20074;-81
2023/05/09 13:22:31;;;;;;;2.53;1.10;;;;;;;;;;4975884;28;20121;-82
2023/05/09 13:24:57;;;;;;;1.10;1.00;;;;;;;;;;4981851;28;20118;-81
2023/05/09 13:27:26;;;;;;;1.13;0.80;;;;;;;;;;4957167;28;20739;-81
2023/05/09 13:29:52;;;;;;;6.20;1.08;;;;;;;;;;4979891;28;20027;-82
2023/05/09 13:32:23;;;;;;;1.80;1.25;;;;;;;;;;4980300;28;20033;-82
2023/05/09 13:34:49;;;;;;;2.70;1.23;;;;;;;;;;4986801;28;20034;-82
2023/05/09 13:37:15;;;;;;;0.98;0.80;;;;;;;;;;4988108;28;20038;-83
2023/05/09 13:39:41;;;;;;;0.93;0.90;;;;;;;;;;4982630;28;20068;-83
2023/05/09 13:42:07;;;;;;;0.80;0.80;;;;;;;;;;4983573;28;20046;-82
2023/05/09 13:44:33;;;;;;;0.82;0.82;;;;;;;;;;4980738;28;20489;-83
2023/05/09 13:46:59;;;;;;;7.20;0.88;;;;;;;;;;4986307;28;20027;-83
2023/05/09 13:49:29;;;;;;;1.23;0.90;;;;;;;;;;4984867;28;20085;-82
2023/05/09 13:51:55;;;;;;;2.00;1.10;;;;;;;;;;4985867;28;20035;-82
2023/05/09 13:54:21;;;;;;;1.10;0.90;;;;;;;;;;4986029;28;20038;-82
2023/05/09 13:56:48;;;;;;;1.73;1.13;;;;;;;;;;4985192;28;20026;-83
2023/05/09 13:59:14;;;;;;;0.88;0.88;;;;;;;;;;4986602;28;20190;-81
2023/05/09 14:01:40;;;;;;;1.70;0.90;;;;;;;;;;4984670;28;20072;-81
2023/05/09 14:04:06;;;;;;;0.98;0.82;;;;;;;;;;4989324;28;20026;-82
2023/05/09 14:06:33;;;;;;;1.05;0.90;;;;;;;;;;4974428;28;20118;-81
2023/05/09 14:08:59;;;;;;;2.05;1.05;;;;;;;;;;4985191;28;20331;-81
2023/05/09 14:11:25;;;;;;;2.92;1.02;;;;;;;;;;4982638;28;20485;-81
2023/05/09 14:13:51;;;;;;;1.00;0.90;;;;;;;;;;4982570;28;20114;-82
2023/05/09 14:16:18;;;;;;;0.80;0.80;;;;;;;;;;4988323;28;20018;-82
2023/05/09 14:18:44;;;;;;;0.80;0.80;;;;;;;;;;4989319;28;20026;-82
2023/05/09 14:21:10;;;;;;;1.50;0.90;;;;;;;;;;4988875;28;20690;-82
2023/05/09 14:23:36;;;;;;;1.15;1.00;;;;;;;;;;4987630;28;20433;-83
2023/05/09 14:26:02;;;;;;;1.10;0.70;;;;;;;;;;4980968;28;20038;-82
2023/05/09 14:28:28;;;;;;;1.08;0.75;;;;;;;;;;4984671;28;20054;-83
2023/05/09 14:30:54;;;;;;;1.05;0.93;;;;;;;;;;4986551;28;20030;-83
2023/05/09 14:33:20;;;;;;;0.60;0.60;;;;;;;;;;4966238;28;20018;-83
2023/05/09 14:35:46;;;;;;;1.65;0.90;;;;;;;;;;4981274;28;20041;-82
2023/05/09 14:38:12;;;;;;;0.80;0.70;;;;;;;;;;4980593;28;20500;-83
2023/05/09 14:40:38;;;;;;;1.60;0.95;;;;;;;;;;4983540;28;20389;-83
2023/05/09 14:43:04;;;;;;;0.77;0.77;;;;;;;;;;4978067;28;21216;-82